createdAt,value
2018-07-25T00:00:19.836Z,55.58
2018-07-25T00:01:24.541Z,55.65
2018-07-25T00:02:31.625Z,55.12
2018-07-25T00:03:37.321Z,54.80
2018-07-25T00:04:43.333Z,55.32
2018-07-25T00:05:50.008Z,54.65
2018-07-25T00:06:54.700Z,54.83
2018-07-25T00:07:59.722Z,54.60
2018-07-25T00:09:07.438Z,54.67
2018-07-25T00:10:12.216Z,55.12
2018-07-25T00:11:16.909Z,55.26
2018-07-25T00:12:22.743Z,55.21
2018-07-25T00:13:28.379Z,54.38
2018-07-25T00:14:33.074Z,53.93
2018-07-25T00:15:39.389Z,54.53
2018-07-25T00:16:45.689Z,54.42
2018-07-25T00:17:50.369Z,55.02
2018-07-25T00:18:55.749Z,54.81
2018-07-25T00:20:02.149Z,55.28
2018-07-25T00:21:07.688Z,55.10
2018-07-25T00:22:16.256Z,54.66
2018-07-25T00:23:22.388Z,54.70
2018-07-25T00:24:27.280Z,54.88
2018-07-25T00:25:32.264Z,54.98
2018-07-25T00:26:36.819Z,55.64
2018-07-25T00:27:41.392Z,55.02
2018-07-25T00:28:47.370Z,54.87
2018-07-25T00:29:52.010Z,54.75
2018-07-25T00:30:56.639Z,55.39
2018-07-25T00:32:01.694Z,55.79
2018-07-25T00:33:06.690Z,56.36
2018-07-25T00:34:12.311Z,56.24
2018-07-25T00:35:16.956Z,56.80
2018-07-25T00:36:21.640Z,56.98
2018-07-25T00:37:26.639Z,56.87
2018-07-25T00:38:31.796Z,56.54
2018-07-25T00:39:36.378Z,56.84
2018-07-25T00:40:40.925Z,56.79
2018-07-25T00:41:45.549Z,56.73
2018-07-25T00:42:51.345Z,56.88
2018-07-25T00:43:56.383Z,56.66
2018-07-25T00:45:01.534Z,56.86
2018-07-25T00:46:06.227Z,56.63
2018-07-25T00:47:10.908Z,56.26
2018-07-25T00:48:15.541Z,56.77
2018-07-25T00:49:20.247Z,56.46
2018-07-25T00:50:25.097Z,55.98
2018-07-25T00:51:30.597Z,56.29
2018-07-25T00:52:35.266Z,56.18
2018-07-25T00:53:40.927Z,56.26
2018-07-25T00:54:46.462Z,56.47
2018-07-25T00:55:55.241Z,56.76
2018-07-25T00:57:01.909Z,56.37
2018-07-25T00:58:10.886Z,56.24
2018-07-25T00:59:16.259Z,56.89
2018-07-25T01:00:21.492Z,55.79
2018-07-25T01:01:27.041Z,56.18
2018-07-25T01:02:32.577Z,56.61
2018-07-25T01:03:38.815Z,56.66
2018-07-25T01:04:43.714Z,57.10
2018-07-25T01:05:48.259Z,57.23
2018-07-25T01:06:53.857Z,57.47
2018-07-25T01:07:59.400Z,56.64
2018-07-25T01:09:05.216Z,56.98
2018-07-25T01:10:10.479Z,57.90
2018-07-25T01:11:15.611Z,57.69
2018-07-25T01:12:20.306Z,57.68
2018-07-25T01:13:26.680Z,58.38
2018-07-25T01:14:31.406Z,58.29
2018-07-25T01:15:36.386Z,58.47
2018-07-25T01:16:42.276Z,57.98
2018-07-25T01:17:47.420Z,58.22
2018-07-25T01:18:52.066Z,58.49
2018-07-25T01:19:56.657Z,59.01
2018-07-25T01:21:01.240Z,58.01
2018-07-25T01:22:06.846Z,58.04
2018-07-25T01:23:11.500Z,58.57
2018-07-25T01:24:16.448Z,58.91
2018-07-25T01:25:21.044Z,58.33
2018-07-25T01:26:27.076Z,58.41
2018-07-25T01:27:31.673Z,58.64
2018-07-25T01:28:36.472Z,58.63
2018-07-25T01:29:41.103Z,58.96
2018-07-25T01:30:46.265Z,58.36
2018-07-25T01:31:50.960Z,58.73
2018-07-25T01:32:55.627Z,58.15
2018-07-25T01:34:00.348Z,58.39
2018-07-25T01:35:05.021Z,58.50
2018-07-25T01:36:09.684Z,58.05
2018-07-25T01:37:14.811Z,58.88
2018-07-25T01:38:19.435Z,58.22
2018-07-25T01:39:24.069Z,58.98
2018-07-25T01:40:28.705Z,58.77
2018-07-25T01:41:33.379Z,58.54
2018-07-25T01:42:38.064Z,58.48
2018-07-25T01:43:42.759Z,58.01
2018-07-25T01:44:47.605Z,58.02
2018-07-25T01:45:52.701Z,58.43
2018-07-25T01:46:57.362Z,57.47
2018-07-25T01:48:02.444Z,58.38
2018-07-25T01:49:07.464Z,57.62
2018-07-25T01:50:12.119Z,58.56
2018-07-25T01:51:16.817Z,58.07
2018-07-25T01:52:21.503Z,59.44
2018-07-25T01:53:26.196Z,59.51
2018-07-25T01:54:31.470Z,59.04
2018-07-25T01:55:36.601Z,60.20
2018-07-25T01:56:41.287Z,60.21
2018-07-25T01:57:45.978Z,59.64
2018-07-25T01:58:50.689Z,59.96
2018-07-25T01:59:56.935Z,58.92
2018-07-25T02:01:01.625Z,59.58
2018-07-25T02:02:06.786Z,59.72
2018-07-25T02:03:11.493Z,59.29
2018-07-25T02:04:16.220Z,59.84
2018-07-25T02:05:22.225Z,59.72
2018-07-25T02:06:26.920Z,59.06
2018-07-25T02:07:31.576Z,58.87
2018-07-25T02:08:36.707Z,59.23
2018-07-25T02:09:41.395Z,59.07
2018-07-25T02:10:46.862Z,59.42
2018-07-25T02:11:51.536Z,59.02
2018-07-25T02:12:56.274Z,60.02
2018-07-25T02:14:00.908Z,59.83
2018-07-25T02:15:06.721Z,59.40
2018-07-25T02:16:11.416Z,60.48
2018-07-25T02:17:16.128Z,59.80
2018-07-25T02:18:20.841Z,59.76
2018-07-25T02:19:25.516Z,60.10
2018-07-25T02:20:30.052Z,60.31
2018-07-25T02:21:35.002Z,59.64
2018-07-25T02:22:39.578Z,60.31
2018-07-25T02:23:44.158Z,60.08
2018-07-25T02:24:48.729Z,60.31
2018-07-25T02:25:53.631Z,60.15
2018-07-25T02:26:58.244Z,59.63
2018-07-25T02:28:03.317Z,59.51
2018-07-25T02:29:07.865Z,60.14
2018-07-25T02:30:12.383Z,60.20
2018-07-25T02:31:17.038Z,60.42
2018-07-25T02:32:21.567Z,60.18
2018-07-25T02:33:31.400Z,59.50
2018-07-25T02:34:35.964Z,59.47
2018-07-25T02:35:40.541Z,59.91
2018-07-25T02:36:45.096Z,60.24
2018-07-25T02:37:49.609Z,60.20
2018-07-25T02:38:55.064Z,60.51
2018-07-25T02:40:00.098Z,59.51
2018-07-25T02:41:04.674Z,60.04
2018-07-25T02:42:09.207Z,60.83
2018-07-25T02:43:13.742Z,60.23
2018-07-25T02:44:18.311Z,60.36
2018-07-25T02:45:22.849Z,60.05
2018-07-25T02:46:27.951Z,60.99
2018-07-25T02:47:32.489Z,60.17
2018-07-25T02:48:37.021Z,60.67
2018-07-25T02:49:41.694Z,61.12
2018-07-25T02:50:46.960Z,60.30
2018-07-25T02:51:51.699Z,61.13
2018-07-25T02:52:56.899Z,61.12
2018-07-25T02:54:01.628Z,60.79
2018-07-25T02:55:06.618Z,61.54
2018-07-25T02:56:11.250Z,61.42
2018-07-25T02:57:15.856Z,61.69
2018-07-25T02:58:20.410Z,61.81
2018-07-25T02:59:25.936Z,61.77
2018-07-25T03:00:30.594Z,61.46
2018-07-25T03:01:35.400Z,61.88
2018-07-25T03:02:40.225Z,61.66
2018-07-25T03:03:44.865Z,61.08
2018-07-25T03:04:49.525Z,62.07
2018-07-25T03:05:54.623Z,61.92
2018-07-25T03:06:59.293Z,61.59
2018-07-25T03:08:04.271Z,61.19
2018-07-25T03:09:09.805Z,61.58
2018-07-25T03:10:15.176Z,61.25
2018-07-25T03:11:19.821Z,62.06
2018-07-25T03:12:24.989Z,62.36
2018-07-25T03:13:30.321Z,62.57
2018-07-25T03:14:34.954Z,62.40
2018-07-25T03:15:39.611Z,63.20
2018-07-25T03:16:44.282Z,63.41
2018-07-25T03:17:49.391Z,62.67
2018-07-25T03:18:54.125Z,62.99
2018-07-25T03:19:58.778Z,62.80
2018-07-25T03:21:03.498Z,62.46
2018-07-25T03:22:08.169Z,62.42
2018-07-25T03:23:12.838Z,63.38
2018-07-25T03:24:17.893Z,62.45
2018-07-25T03:25:22.952Z,62.16
2018-07-25T03:26:27.609Z,63.00
2018-07-25T03:27:32.121Z,62.65
2018-07-25T03:28:36.621Z,63.35
2018-07-25T03:29:41.372Z,62.97
2018-07-25T03:30:46.290Z,63.69
2018-07-25T03:31:50.829Z,62.95
2018-07-25T03:32:55.381Z,63.07
2018-07-25T03:33:59.925Z,64.06
2018-07-25T03:35:04.499Z,63.79
2018-07-25T03:50:02.472Z,64.46
2018-07-25T03:51:07.157Z,64.61
2018-07-25T03:52:11.843Z,64.13
2018-07-25T03:53:16.529Z,64.32
2018-07-25T03:54:21.215Z,64.50
2018-07-25T03:55:26.252Z,63.83
2018-07-25T03:56:30.919Z,63.84
2018-07-25T03:57:35.646Z,63.90
2018-07-25T03:58:40.313Z,63.78
2018-07-25T03:59:44.962Z,63.36
2018-07-25T04:00:49.641Z,63.53
2018-07-25T04:01:54.779Z,64.17
2018-07-25T04:02:59.489Z,64.17
2018-07-25T04:04:04.154Z,63.92
2018-07-25T04:05:08.821Z,64.08
2018-07-25T04:06:13.539Z,63.52
2018-07-25T04:07:20.381Z,63.64
2018-07-25T04:08:25.563Z,64.06
2018-07-25T04:09:30.261Z,64.64
2018-07-25T04:10:34.929Z,64.05
2018-07-25T04:11:39.634Z,64.30
2018-07-25T04:12:44.650Z,64.24
2018-07-25T04:13:49.312Z,63.92
2018-07-25T04:14:55.939Z,64.68
2018-07-25T04:16:00.617Z,63.91
2018-07-25T04:17:05.161Z,64.43
2018-07-25T04:18:09.729Z,63.97
2018-07-25T04:19:14.372Z,63.51
2018-07-25T04:20:20.062Z,64.01
2018-07-25T04:21:25.122Z,63.24
2018-07-25T04:22:30.360Z,63.21
2018-07-25T04:23:34.953Z,64.36
2018-07-25T04:24:39.541Z,63.17
2018-07-25T04:25:44.118Z,64.00
2018-07-25T04:26:48.802Z,63.94
2018-07-25T04:27:54.169Z,64.21
2018-07-25T04:28:58.939Z,64.40
2018-07-25T04:30:03.495Z,64.38
2018-07-25T04:31:08.026Z,64.92
2018-07-25T04:32:13.451Z,64.07
2018-07-25T04:33:18.643Z,64.68
2018-07-25T04:34:24.019Z,64.62
2018-07-25T04:35:28.593Z,64.26
2018-07-25T04:36:33.148Z,64.74
2018-07-25T04:37:38.226Z,64.97
2018-07-25T04:38:43.070Z,64.67
2018-07-25T04:39:47.579Z,63.94
2018-07-25T04:40:52.477Z,63.30
2018-07-25T04:41:57.044Z,64.22
2018-07-25T04:43:01.565Z,64.11
2018-07-25T04:44:06.242Z,64.40
2018-07-25T04:45:11.593Z,64.49
2018-07-25T04:46:16.174Z,64.21
2018-07-25T04:47:21.210Z,64.05
2018-07-25T04:48:26.697Z,63.79
2018-07-25T04:49:31.264Z,64.42
2018-07-25T04:50:35.824Z,64.61
2018-07-25T04:51:40.367Z,63.95
2018-07-25T04:52:44.931Z,63.80
2018-07-25T04:53:49.892Z,62.96
2018-07-25T04:54:54.507Z,63.24
2018-07-25T04:55:59.052Z,63.80
2018-07-25T04:57:03.844Z,63.00
2018-07-25T04:58:08.776Z,64.02
2018-07-25T04:59:15.116Z,63.49
2018-07-25T05:00:21.894Z,63.18
2018-07-25T05:01:27.995Z,63.40
2018-07-25T05:02:33.441Z,63.83
2018-07-25T05:03:38.209Z,63.64
2018-07-25T05:04:42.910Z,64.30
2018-07-25T05:05:47.905Z,65.06
2018-07-25T05:06:52.941Z,64.75
2018-07-25T05:07:57.494Z,65.39
2018-07-25T05:09:02.022Z,65.08
2018-07-25T05:10:06.814Z,64.87
2018-07-25T05:11:12.072Z,64.69
2018-07-25T05:12:16.677Z,64.82
2018-07-25T05:13:22.374Z,64.94
2018-07-25T05:14:28.749Z,66.21
2018-07-25T05:15:33.328Z,65.33
2018-07-25T05:16:37.832Z,65.69
2018-07-25T05:17:42.414Z,65.50
2018-07-25T05:18:46.982Z,64.55
2018-07-25T05:19:52.105Z,64.05
2018-07-25T05:20:56.839Z,64.75
2018-07-25T05:22:01.383Z,65.27
2018-07-25T05:23:06.234Z,64.72
2018-07-25T05:24:10.983Z,64.14
2018-07-25T05:25:15.781Z,65.15
2018-07-25T05:26:21.834Z,65.29
2018-07-25T05:27:26.422Z,64.70
2018-07-25T05:28:31.214Z,65.10
2018-07-25T05:29:36.738Z,64.64
2018-07-25T05:30:41.778Z,65.25
2018-07-25T05:31:46.641Z,65.66
2018-07-25T05:32:51.565Z,65.92
2018-07-25T05:33:56.191Z,65.50
2018-07-25T05:35:00.782Z,65.18
2018-07-25T05:36:05.324Z,64.63
2018-07-25T05:37:10.132Z,64.36
2018-07-25T05:38:14.744Z,65.34
2018-07-25T05:39:20.755Z,65.11
2018-07-25T05:40:25.364Z,64.08
2018-07-25T05:41:30.917Z,64.27
2018-07-25T05:42:35.427Z,63.95
2018-07-25T05:43:40.115Z,64.43
2018-07-25T05:44:47.779Z,63.86
2018-07-25T05:45:55.370Z,63.49
2018-07-25T05:47:01.662Z,63.35
2018-07-25T05:48:07.389Z,63.99
2018-07-25T05:49:13.265Z,63.71
2018-07-25T05:50:17.909Z,62.83
2018-07-25T05:51:23.436Z,63.59
2018-07-25T05:52:29.559Z,63.21
2018-07-25T05:53:34.193Z,62.83
2018-07-25T05:54:38.838Z,62.76
2018-07-25T05:55:44.140Z,63.37
2018-07-25T05:56:50.207Z,62.45
2018-07-25T05:57:55.939Z,63.36
2018-07-25T05:59:02.010Z,63.07
2018-07-25T06:00:06.630Z,62.88
2018-07-25T06:01:11.245Z,62.89
2018-07-25T06:02:16.382Z,61.92
2018-07-25T06:03:22.358Z,62.05
2018-07-25T06:04:28.440Z,61.42
2018-07-25T06:05:33.912Z,61.12
2018-07-25T06:06:44.334Z,61.39
2018-07-25T06:07:49.865Z,60.96
2018-07-25T06:08:54.462Z,61.09
2018-07-25T06:09:59.722Z,60.97
2018-07-25T06:11:10.090Z,61.04
2018-07-25T06:12:14.698Z,61.53
2018-07-25T06:13:19.522Z,61.51
2018-07-25T06:14:24.853Z,60.65
2018-07-25T06:15:29.749Z,60.61
2018-07-25T06:16:34.353Z,60.47
2018-07-25T06:17:39.817Z,60.05
2018-07-25T06:18:44.874Z,60.05
2018-07-25T06:19:49.517Z,59.30
2018-07-25T06:20:54.086Z,59.89
2018-07-25T06:21:58.795Z,59.52
2018-07-25T06:23:03.339Z,60.27
2018-07-25T06:24:08.948Z,60.12
2018-07-25T06:25:14.011Z,59.81
2018-07-25T06:26:19.785Z,59.60
2018-07-25T06:27:24.364Z,59.38
2018-07-25T06:28:29.078Z,59.58
2018-07-25T06:29:33.681Z,59.19
2018-07-25T06:30:38.740Z,59.16
2018-07-25T06:31:43.724Z,59.59
2018-07-25T06:32:48.350Z,59.10
2018-07-25T06:33:52.959Z,60.10
2018-07-25T06:34:57.550Z,59.34
2018-07-25T06:36:02.298Z,58.68
2018-07-25T06:37:09.286Z,58.89
2018-07-25T06:38:15.038Z,59.48
2018-07-25T06:39:20.421Z,58.43
2018-07-25T06:40:25.114Z,58.96
2018-07-25T06:41:29.961Z,58.51
2018-07-25T06:42:34.857Z,58.98
2018-07-25T06:43:40.310Z,58.14
2018-07-25T06:44:45.439Z,58.38
2018-07-25T06:45:51.347Z,58.36
2018-07-25T06:47:09.457Z,58.36
2018-07-25T06:48:14.343Z,57.61
2018-07-25T06:49:20.984Z,57.09
2018-07-25T06:50:26.310Z,57.36
2018-07-25T06:51:31.682Z,56.70
2018-07-25T06:52:36.645Z,56.58
2018-07-25T06:53:41.362Z,56.84
2018-07-25T06:54:46.087Z,56.11
2018-07-25T06:55:50.783Z,55.86
2018-07-25T06:56:55.845Z,56.21
2018-07-25T06:58:00.566Z,56.71
2018-07-25T06:59:05.402Z,56.74
2018-07-25T07:00:11.003Z,55.90
2018-07-25T07:01:16.488Z,55.73
2018-07-25T07:02:21.169Z,55.57
2018-07-25T07:03:27.319Z,55.90
2018-07-25T07:04:35.264Z,55.64
2018-07-25T07:05:40.282Z,55.15
2018-07-25T07:06:45.288Z,54.16
2018-07-25T07:07:50.297Z,54.06
2018-07-25T07:08:55.880Z,55.25
2018-07-25T07:10:01.255Z,53.46
2018-07-25T07:11:06.629Z,54.08
2018-07-25T07:12:11.526Z,54.00
2018-07-25T07:13:17.444Z,53.38
2018-07-25T07:14:22.317Z,53.48
2018-07-25T07:15:27.405Z,53.00
2018-07-25T07:16:32.784Z,52.90
2018-07-25T07:17:38.268Z,52.74
2018-07-25T07:18:43.403Z,52.49
2018-07-25T07:19:49.441Z,52.74
2018-07-25T07:21:09.289Z,52.39
2018-07-25T07:22:14.596Z,52.09
2018-07-25T07:23:20.511Z,52.74
2018-07-25T07:24:26.395Z,51.58
2018-07-25T07:25:31.350Z,52.15
2018-07-25T07:26:36.193Z,51.15
2018-07-25T07:27:42.207Z,50.52
2018-07-25T07:28:50.977Z,50.30
2018-07-25T07:29:57.259Z,50.55
2018-07-25T07:31:02.005Z,50.41
2018-07-25T07:32:06.816Z,49.96
2018-07-25T07:33:11.551Z,49.87
2018-07-25T07:34:17.185Z,50.26
2018-07-25T07:35:22.282Z,49.58
2018-07-25T07:36:27.784Z,49.28
2018-07-25T07:37:33.440Z,49.28
2018-07-25T07:38:39.097Z,48.37
2018-07-25T07:39:45.250Z,48.22
2018-07-25T07:40:50.229Z,47.80
2018-07-25T07:41:55.341Z,47.44
2018-07-25T07:43:01.701Z,47.69
2018-07-25T07:44:06.848Z,47.73
2018-07-25T07:46:33.603Z,47.22
2018-07-25T07:47:38.460Z,46.52
2018-07-25T07:48:43.886Z,46.10
2018-07-25T07:49:49.424Z,45.72
2018-07-25T07:50:54.381Z,46.04
2018-07-25T07:52:00.252Z,45.88
2018-07-25T07:53:05.532Z,44.86
2018-07-25T07:54:10.649Z,44.87
2018-07-25T07:55:17.654Z,45.30
2018-07-25T07:56:25.222Z,44.87
2018-07-25T07:57:30.013Z,44.99
2018-07-25T07:58:36.501Z,44.88
2018-07-25T07:59:43.702Z,43.85
2018-07-25T08:00:48.472Z,43.91
2018-07-25T08:01:56.573Z,43.18
2018-07-25T08:03:02.527Z,43.19
2018-07-25T08:04:07.291Z,43.03
2018-07-25T08:05:12.007Z,43.03
2018-07-25T08:06:16.797Z,42.62
2018-07-25T08:07:22.615Z,42.64
2018-07-25T08:08:27.919Z,42.45
2018-07-25T08:09:33.628Z,41.88
2018-07-25T08:10:39.938Z,41.77
2018-07-25T08:11:44.711Z,41.60
2018-07-25T08:12:49.487Z,41.40
2018-07-25T08:13:54.403Z,41.28
2018-07-25T08:15:00.396Z,40.75
2018-07-25T08:16:05.274Z,40.36
2018-07-25T08:17:10.139Z,40.53
2018-07-25T08:18:15.007Z,40.70
2018-07-25T08:19:21.302Z,40.07
2018-07-25T08:20:27.148Z,40.12
2018-07-25T08:21:32.099Z,39.43
2018-07-25T08:22:36.994Z,39.76
2018-07-25T08:23:42.328Z,39.11
2018-07-25T08:24:47.457Z,39.57
2018-07-25T08:25:52.218Z,39.20
2018-07-25T08:26:57.258Z,38.42
2018-07-25T08:28:03.684Z,38.30
2018-07-25T08:29:08.479Z,38.44
2018-07-25T08:30:14.494Z,38.95
2018-07-25T08:31:21.846Z,39.42
2018-07-25T08:32:26.602Z,100.00
2018-07-25T08:33:31.321Z,38.39
2018-07-25T08:34:36.415Z,38.26
2018-07-25T08:35:41.720Z,39.22
2018-07-25T08:36:48.704Z,38.69
2018-07-25T08:37:53.498Z,38.67
2018-07-25T08:38:58.279Z,38.58
2018-07-25T08:40:05.836Z,38.37
2018-07-25T08:41:11.271Z,38.28
2018-07-25T08:42:16.849Z,38.86
2018-07-25T08:43:23.178Z,38.84
2018-07-25T08:44:27.856Z,37.78
2018-07-25T08:45:35.403Z,37.99
2018-07-25T08:46:41.513Z,38.14
2018-07-25T08:47:47.096Z,37.35
2018-07-25T08:48:51.895Z,37.98
2018-07-25T08:49:58.223Z,36.84
2018-07-25T08:51:03.311Z,37.77
2018-07-25T08:52:08.145Z,37.63
2018-07-25T08:53:12.871Z,37.43
2018-07-25T08:54:18.239Z,37.04
2018-07-25T08:55:23.485Z,37.57
2018-07-25T08:56:28.255Z,37.03
2018-07-25T08:57:34.370Z,37.18
2018-07-25T08:58:39.432Z,36.88
2018-07-25T08:59:44.282Z,36.38
2018-07-25T09:00:54.358Z,36.07
2018-07-25T09:01:59.241Z,36.62
2018-07-25T09:03:04.096Z,36.44
2018-07-25T09:04:08.891Z,36.04
2018-07-25T09:05:14.108Z,36.01
2018-07-25T09:06:19.840Z,35.57
2018-07-25T09:07:24.659Z,35.23
2018-07-25T09:08:29.744Z,35.37
2018-07-25T09:09:34.541Z,35.63
2018-07-25T09:10:39.503Z,34.17
2018-07-25T09:11:44.540Z,34.39
2018-07-25T09:12:49.661Z,34.96
2018-07-25T09:13:55.581Z,34.54
2018-07-25T09:15:01.362Z,33.43
2018-07-25T09:16:07.122Z,34.80
2018-07-25T09:17:12.870Z,33.19
2018-07-25T09:18:17.872Z,33.38
2018-07-25T09:19:22.662Z,33.33
2018-07-25T09:20:27.445Z,33.62
2018-07-25T09:21:32.372Z,32.90
2018-07-25T09:22:37.193Z,33.55
2018-07-25T09:23:42.147Z,34.00
2018-07-25T09:24:47.589Z,33.90
2018-07-25T09:25:52.458Z,32.67
2018-07-25T09:26:57.320Z,33.07
2018-07-25T09:28:02.126Z,33.10
2018-07-25T09:29:06.872Z,32.67
2018-07-25T09:30:11.838Z,33.47
2018-07-25T09:31:17.898Z,32.94
2018-07-25T09:32:23.696Z,32.26
2018-07-25T09:33:28.638Z,32.60
2018-07-25T09:34:33.419Z,31.31
2018-07-25T09:35:40.754Z,31.60
2018-07-25T09:36:45.484Z,32.39
2018-07-25T09:37:50.998Z,32.68
2018-07-25T09:38:56.400Z,31.69
2018-07-25T09:40:01.261Z,31.63
2018-07-25T09:41:07.586Z,31.60
2018-07-25T09:42:16.847Z,31.98
2018-07-25T09:43:22.232Z,31.32
2018-07-25T09:44:28.371Z,31.86
2018-07-25T09:45:33.257Z,31.58
2018-07-25T09:46:38.227Z,30.98
2018-07-25T09:47:43.025Z,30.45
2018-07-25T09:48:49.723Z,31.37
2018-07-25T10:05:44.464Z,30.64
2018-07-25T10:06:49.575Z,31.08
2018-07-25T10:07:54.498Z,31.36
2018-07-25T10:08:59.502Z,31.39
2018-07-25T10:10:04.671Z,31.49
2018-07-25T10:11:09.991Z,31.55
2018-07-25T10:12:15.818Z,31.34
2018-07-25T10:13:21.148Z,31.68
2018-07-25T10:14:26.241Z,31.48
2018-07-25T10:15:31.701Z,31.29
2018-07-25T10:16:36.712Z,32.20
2018-07-25T10:17:42.456Z,31.65
2018-07-25T10:18:48.745Z,31.22
2018-07-25T10:19:54.598Z,32.20
2018-07-25T10:21:01.529Z,32.07
2018-07-25T10:22:06.362Z,31.70
2018-07-25T10:23:12.746Z,32.05
2018-07-25T10:24:18.512Z,31.78
2018-07-25T10:25:25.002Z,31.99
2018-07-25T10:26:29.928Z,31.24
2018-07-25T10:27:36.110Z,31.07
2018-07-25T10:28:42.360Z,31.11
2018-07-25T10:29:48.952Z,31.96
2018-07-25T10:30:55.746Z,31.75
2018-07-25T10:32:02.614Z,31.31
2018-07-25T10:33:07.547Z,31.13
2018-07-25T10:34:13.325Z,31.00
2018-07-25T10:35:19.796Z,31.56
2018-07-25T10:36:24.770Z,31.47
2018-07-25T10:37:32.410Z,31.60
2018-07-25T10:38:41.510Z,31.15
2018-07-25T10:39:47.251Z,30.99
2018-07-25T10:40:52.234Z,31.76
2018-07-25T10:41:58.569Z,31.67
2018-07-25T10:43:04.326Z,32.24
2018-07-25T10:44:10.281Z,32.01
2018-07-25T10:45:18.139Z,30.63
2018-07-25T10:46:23.138Z,31.83
2018-07-25T10:47:28.408Z,31.06
2018-07-25T10:48:37.230Z,31.42
2018-07-25T10:49:44.572Z,30.87
2018-07-25T10:50:56.720Z,30.92
2018-07-25T10:52:01.671Z,31.87
2018-07-25T10:53:08.759Z,31.34
2018-07-25T10:54:13.709Z,32.17
2018-07-25T10:55:18.611Z,31.05
2018-07-25T10:56:24.640Z,31.07
2018-07-25T10:57:31.035Z,31.90
2018-07-25T10:58:37.456Z,31.97
2018-07-25T10:59:43.992Z,31.58
2018-07-25T11:00:51.204Z,31.09
2018-07-25T11:01:58.172Z,31.50
2018-07-25T11:03:07.699Z,31.46
2018-07-25T11:04:12.679Z,31.87
2018-07-25T11:05:18.538Z,31.23
2018-07-25T11:06:28.465Z,32.03
2018-07-25T11:08:48.594Z,100.00
2018-07-25T11:09:55.537Z,31.74
2018-07-25T11:11:01.665Z,31.34
2018-07-25T11:12:06.553Z,31.38
2018-07-25T11:13:21.297Z,30.66
2018-07-25T11:14:27.128Z,31.24
2018-07-25T11:15:33.602Z,30.84
2018-07-25T11:16:40.925Z,30.87
2018-07-25T11:17:47.852Z,30.76
2018-07-25T11:18:53.966Z,30.27
2018-07-25T11:19:59.847Z,31.51
2018-07-25T11:21:09.210Z,30.93
2018-07-25T11:22:15.920Z,31.40
2018-07-25T11:23:28.707Z,31.03
2018-07-25T11:24:36.545Z,30.65
2018-07-25T11:25:45.838Z,30.95
2018-07-25T11:28:05.861Z,31.37
2018-07-25T11:29:11.718Z,31.45
2018-07-25T11:30:16.918Z,30.91
2018-07-25T11:31:21.844Z,30.70
2018-07-25T11:32:27.756Z,30.60
2018-07-25T11:33:33.965Z,30.73
2018-07-25T11:34:38.833Z,30.71
2018-07-25T11:35:44.808Z,30.94
2018-07-25T11:36:50.247Z,30.49
2018-07-25T11:38:00.502Z,30.70
2018-07-25T11:39:10.303Z,31.08
2018-07-25T11:40:19.301Z,30.60
2018-07-25T11:41:26.308Z,30.75
2018-07-25T11:42:32.363Z,31.47
2018-07-25T11:43:37.296Z,30.79
2018-07-25T11:44:43.627Z,31.48
2018-07-25T11:45:53.633Z,31.07
2018-07-25T11:47:01.812Z,31.17
2018-07-25T11:48:09.208Z,31.98
2018-07-25T11:49:16.104Z,31.35
2018-07-25T11:50:22.086Z,31.95
2018-07-25T11:51:27.220Z,32.00
2018-07-25T11:52:32.549Z,32.98
2018-07-25T11:53:38.301Z,34.09
2018-07-25T11:54:43.247Z,34.11
2018-07-25T11:55:49.045Z,33.78
2018-07-25T11:56:57.672Z,33.74
2018-07-25T11:58:05.591Z,35.04
2018-07-25T11:59:11.669Z,34.10
2018-07-25T12:00:16.638Z,35.50
2018-07-25T12:01:24.098Z,34.83
2018-07-25T12:02:29.484Z,35.92
2018-07-25T12:03:34.227Z,35.68
2018-07-25T12:04:40.172Z,35.51
2018-07-25T12:05:46.383Z,35.42
2018-07-25T12:06:54.319Z,35.47
2018-07-25T12:07:59.283Z,36.44
2018-07-25T12:09:06.175Z,36.47
2018-07-25T12:10:12.570Z,36.12
2018-07-25T12:11:18.990Z,36.42
2018-07-25T12:12:26.563Z,36.27
2018-07-25T12:13:34.052Z,37.06
2018-07-25T12:14:41.406Z,36.58
2018-07-25T12:15:47.747Z,36.25
2018-07-25T12:16:53.590Z,36.55
2018-07-25T12:17:58.414Z,35.94
2018-07-25T12:19:09.560Z,35.56
2018-07-25T12:20:14.398Z,35.20
2018-07-25T12:21:19.509Z,34.88
2018-07-25T12:22:27.437Z,34.81
2018-07-25T12:23:34.676Z,34.34
2018-07-25T12:24:40.595Z,34.98
2018-07-25T12:25:46.678Z,34.45
2018-07-25T12:26:51.610Z,35.43
2018-07-25T12:27:56.484Z,35.87
2018-07-25T12:29:02.854Z,35.15
2018-07-25T12:30:08.577Z,35.77
2018-07-25T12:31:13.450Z,35.48
2018-07-25T12:32:18.806Z,35.43
2018-07-25T12:33:24.238Z,36.20
2018-07-25T12:34:29.077Z,35.13
2018-07-25T12:35:34.040Z,35.41
2018-07-25T12:36:38.904Z,35.09
2018-07-25T12:37:43.867Z,36.01
2018-07-25T12:38:49.092Z,36.53
2018-07-25T12:39:53.979Z,35.99
2018-07-25T12:40:59.295Z,36.26
2018-07-25T12:42:04.150Z,37.56
2018-07-25T12:43:09.190Z,37.09
2018-07-25T12:44:14.509Z,36.90
2018-07-25T12:45:19.922Z,37.19
2018-07-25T12:46:26.325Z,36.69
2018-07-25T12:47:32.463Z,37.59
2018-07-25T12:48:37.439Z,36.38
2018-07-25T12:49:42.279Z,36.71
2018-07-25T12:50:50.075Z,37.56
2018-07-25T12:51:55.293Z,38.29
2018-07-25T12:53:01.717Z,38.23
2018-07-25T12:54:06.880Z,38.09
2018-07-25T12:55:13.104Z,38.57
2018-07-25T12:56:17.982Z,38.40
2018-07-25T12:57:22.780Z,38.27
2018-07-25T12:58:31.469Z,38.56
2018-07-25T12:59:36.267Z,37.29
2018-07-25T13:00:41.748Z,38.33
2018-07-25T13:01:48.529Z,38.19
2018-07-25T13:02:56.410Z,38.14
2018-07-25T13:04:02.883Z,37.15
2018-07-25T13:05:08.700Z,37.21
2018-07-25T13:06:13.533Z,37.17
2018-07-25T13:07:20.698Z,37.57
2018-07-25T13:08:25.667Z,37.81
2018-07-25T13:09:31.818Z,38.00
2018-07-25T13:10:37.637Z,37.81
2018-07-25T13:11:43.025Z,37.01
2018-07-25T13:12:47.890Z,37.19
2018-07-25T13:13:52.986Z,37.81
2018-07-25T13:14:58.305Z,37.96
2018-07-25T13:16:03.210Z,38.11
2018-07-25T13:17:08.098Z,38.09
2018-07-25T13:18:13.344Z,38.26
2018-07-25T13:19:21.760Z,37.87
2018-07-25T13:20:26.737Z,37.71
2018-07-25T13:21:31.527Z,37.50
2018-07-25T13:22:37.272Z,38.61
2018-07-25T13:23:42.878Z,39.00
2018-07-25T13:24:48.163Z,38.81
2018-07-25T13:25:53.158Z,38.48
2018-07-25T13:27:01.014Z,37.30
2018-07-25T13:28:06.794Z,37.23
2018-07-25T13:29:12.611Z,36.77
2018-07-25T13:30:17.793Z,38.23
2018-07-25T13:31:22.963Z,37.86
2018-07-25T13:32:30.106Z,38.00
2018-07-25T13:33:37.551Z,38.50
2018-07-25T13:34:42.345Z,38.79
2018-07-25T13:35:47.381Z,38.30
2018-07-25T13:36:52.783Z,38.90
2018-07-25T13:37:59.589Z,39.27
2018-07-25T13:39:05.780Z,38.85
2018-07-25T13:40:10.798Z,38.83
2018-07-25T13:41:16.737Z,38.87
2018-07-25T13:42:22.169Z,39.36
2018-07-25T13:43:27.279Z,39.08
2018-07-25T13:44:33.326Z,38.43
2018-07-25T13:45:39.020Z,39.11
2018-07-25T13:46:43.983Z,38.97
2018-07-25T13:47:50.001Z,39.34
2018-07-25T13:48:55.393Z,39.61
2018-07-25T13:50:00.411Z,39.90
2018-07-25T13:51:05.647Z,40.38
2018-07-25T13:52:11.973Z,39.98
2018-07-25T13:53:17.844Z,40.07
2018-07-25T13:54:23.480Z,40.45
2018-07-25T13:55:29.016Z,40.67
2018-07-25T13:56:36.388Z,40.52
2018-07-25T13:57:41.810Z,40.88
2018-07-25T13:58:47.310Z,40.79
2018-07-25T13:59:52.405Z,41.13
2018-07-25T14:00:57.376Z,40.62
2018-07-25T14:02:02.256Z,40.31
2018-07-25T14:03:07.802Z,39.44
2018-07-25T14:04:13.420Z,39.15
2018-07-25T14:05:18.908Z,38.68
2018-07-25T14:06:25.093Z,39.32
2018-07-25T14:07:29.963Z,39.39
2018-07-25T14:08:34.892Z,38.74
2018-07-25T14:09:40.296Z,38.42
2018-07-25T14:10:45.910Z,39.31
2018-07-25T14:11:50.826Z,38.87
2018-07-25T14:12:55.720Z,39.62
2018-07-25T14:14:04.020Z,39.41
2018-07-25T14:15:08.947Z,38.84
2018-07-25T14:16:14.891Z,39.44
2018-07-25T14:17:19.680Z,39.14
2018-07-25T14:18:24.452Z,39.94
2018-07-25T14:19:29.316Z,39.35
2018-07-25T14:20:34.212Z,38.48
2018-07-25T14:21:40.346Z,39.37
2018-07-25T14:22:45.580Z,39.45
2018-07-25T14:23:52.106Z,39.06
2018-07-25T14:24:57.039Z,38.87
2018-07-25T14:26:01.887Z,38.84
2018-07-25T14:27:06.823Z,38.13
2018-07-25T14:28:11.676Z,38.40
2018-07-25T14:29:19.180Z,38.39
2018-07-25T14:30:24.786Z,38.36
2018-07-25T14:31:30.243Z,38.18
2018-07-25T14:51:20.014Z,33.35
2018-07-25T14:52:25.366Z,34.14
2018-07-25T14:53:30.531Z,33.62
2018-07-25T14:54:35.966Z,34.47
2018-07-25T14:55:40.837Z,33.82